Moselle, Missouri
Current Conditions -  °F | °C
As of 6:15 AM on Friday 28 Nov 2014 (Local Time) from KFYG Reporting Station
Clear Clear  
Wind Chill: 19°   Ceiling: Unl
Heat Index: 28°   Visibility: 8mi
Dew Point: 25°   Wind: 10mph
Humidity: 86%   Direction: 140°SE
Pressure: 30.23"   Gusts: NA
Location:  38.4268°N, 91.0473°W
Report Text: KFYG 281215Z AUTO 14009KT 8SM CLR M02/M04 A3023 RMK AO2
Loading
Personal Weather Stations






























Interactive Weather Map New forecast layout! Learn more

10-Day Weather Forecast

Advertisements
Track Severe Weather on mobile